createdAt,value
2023-03-07T00:03:57.861Z,41.89231
2023-03-07T00:08:59.672Z,42.02622
2023-03-07T00:14:01.458Z,44.99379
2023-03-07T00:19:03.077Z,47.0452
2023-03-07T00:24:04.733Z,48.19061
2023-03-07T00:29:06.380Z,47.23127
2023-03-07T00:34:08.194Z,48.55472
2023-03-07T00:39:09.808Z,48.19565
2023-03-07T00:44:11.626Z,48.96569
2023-03-07T00:49:13.508Z,50.87765
2023-03-07T00:54:15.366Z,51.45243
2023-03-07T00:59:16.980Z,50.59249
2023-03-07T01:04:18.625Z,50.88297
2023-03-07T01:09:20.233Z,52.26241
2023-03-07T01:14:21.881Z,50.48083
2023-03-07T01:19:23.643Z,47.53325
2023-03-07T01:24:25.299Z,51.1867
2023-03-07T01:29:26.956Z,53.18972
2023-03-07T01:34:28.571Z,55.65039
2023-03-07T01:39:30.148Z,55.89933
2023-03-07T01:44:31.832Z,56.33896
2023-03-07T01:49:33.517Z,56.93224
2023-03-07T01:54:35.132Z,58.92457
2023-03-07T01:59:36.780Z,58.27501
2023-03-07T02:04:38.474Z,57.25977
2023-03-07T02:09:40.125Z,58.55728
2023-03-07T02:14:41.742Z,58.31683
2023-03-07T02:19:43.476Z,58.34258
2023-03-07T02:24:45.069Z,56.84241
2023-03-07T02:29:47.138Z,57.82028
2023-03-07T02:34:49.405Z,58.46119
2023-03-07T02:39:51.490Z,57.94486
2023-03-07T02:44:53.704Z,57.35237
2023-03-07T02:49:55.850Z,58.88461
2023-03-07T02:54:58.027Z,59.75433
2023-03-07T03:00:00.395Z,58.57857
2023-03-07T03:05:02.734Z,59.12589
2023-03-07T03:10:04.970Z,57.68412
2023-03-07T03:15:06.864Z,59.32365
2023-03-07T03:20:08.571Z,60.75465
2023-03-07T03:25:10.582Z,59.26096
2023-03-07T03:30:12.974Z,58.42652
2023-03-07T03:35:15.305Z,59.88414
2023-03-07T03:40:17.731Z,59.5789
2023-03-07T03:45:19.894Z,58.5753
2023-03-07T03:50:22.147Z,59.71987
2023-03-07T03:55:24.327Z,57.6564
2023-03-07T04:00:26.470Z,58.01097
2023-03-07T04:05:28.726Z,60.27019
2023-03-07T04:10:30.809Z,58.50627
2023-03-07T04:15:33.073Z,60.26137
2023-03-07T04:20:35.216Z,57.81197
2023-03-07T04:25:38.226Z,60.06625
2023-03-07T04:30:40.239Z,57.92328
2023-03-07T04:35:42.213Z,59.79393
2023-03-07T04:40:44.172Z,58.52536
2023-03-07T04:45:45.904Z,57.35526
2023-03-07T04:50:47.615Z,56.70326
2023-03-07T04:55:49.238Z,58.50513
2023-03-07T05:00:50.889Z,61.20061
2023-03-07T05:05:52.527Z,58.78512
2023-03-07T05:10:54.172Z,58.38994
2023-03-07T05:15:55.748Z,58.83733
2023-03-07T05:20:57.489Z,58.50849
2023-03-07T05:25:59.165Z,57.81567
2023-03-07T05:31:00.770Z,58.60304
2023-03-07T05:36:02.505Z,58.6664
2023-03-07T05:41:04.155Z,57.0145
2023-03-07T05:46:05.855Z,58.45636
2023-03-07T05:51:07.446Z,58.94391
2023-03-07T05:56:09.083Z,58.60903
2023-03-07T06:01:10.673Z,59.4342
2023-03-07T06:06:12.582Z,58.87197
2023-03-07T06:11:14.183Z,57.84906
2023-03-07T06:16:15.856Z,60.47525
2023-03-07T06:21:17.525Z,58.76167
2023-03-07T06:26:19.198Z,59.18371
2023-03-07T06:31:20.918Z,59.61007
2023-03-07T06:36:22.573Z,60.43318
2023-03-07T06:41:24.257Z,59.00671
2023-03-07T06:46:25.919Z,58.91568
2023-03-07T06:51:27.563Z,58.92578
2023-03-07T06:56:29.186Z,60.17342
2023-03-07T07:01:30.883Z,61.58561
2023-03-07T07:06:32.509Z,61.88979
2023-03-07T07:11:34.142Z,61.63401
2023-03-07T07:16:35.780Z,61.40003
2023-03-07T07:21:37.529Z,63.27109
2023-03-07T07:26:39.161Z,66.00067
2023-03-07T07:31:40.945Z,69.24661
2023-03-07T07:36:42.856Z,61.67787
2023-03-07T07:41:44.495Z,61.89029
2023-03-07T07:46:46.127Z,60.32995
2023-03-07T07:51:47.736Z,57.41823
2023-03-07T07:56:49.494Z,57.6544
2023-03-07T08:01:51.198Z,58.81565
2023-03-07T08:06:52.778Z,61.74506
2023-03-07T08:11:54.505Z,60.05472
2023-03-07T08:16:56.139Z,58.25847
2023-03-07T08:21:57.884Z,59.21916
2023-03-07T08:26:59.523Z,58.01559
2023-03-07T08:32:01.175Z,59.23427
2023-03-07T08:37:02.855Z,60.10266
2023-03-07T08:42:04.673Z,61.43537
2023-03-07T08:47:06.340Z,58.52756
2023-03-07T08:52:07.985Z,61.6807
2023-03-07T08:57:09.616Z,60.80697
2023-03-07T09:02:11.287Z,60.808
2023-03-07T09:07:13.187Z,61.73802
2023-03-07T09:12:15.028Z,62.12176
2023-03-07T09:17:16.631Z,60.72306
2023-03-07T09:22:18.340Z,58.25418
2023-03-07T09:27:19.965Z,58.84953
2023-03-07T09:32:21.528Z,58.49156
2023-03-07T09:37:23.223Z,59.79097
2023-03-07T09:42:24.869Z,59.91107
2023-03-07T09:47:26.490Z,58.85857
2023-03-07T09:52:28.279Z,60.83609
2023-03-07T09:57:29.905Z,59.87151
2023-03-07T10:02:31.551Z,58.93017
2023-03-07T10:07:33.297Z,60.44146
2023-03-07T10:12:34.879Z,63.42723
2023-03-07T10:17:36.570Z,61.46062
2023-03-07T10:22:38.217Z,61.27921
2023-03-07T10:27:39.873Z,60.90756
2023-03-07T10:32:41.567Z,61.12089
2023-03-07T10:37:43.220Z,60.26325
2023-03-07T10:42:44.857Z,60.08834
2023-03-07T10:47:46.558Z,63.48961
2023-03-07T10:52:48.217Z,60.32174
2023-03-07T10:57:49.843Z,62.11467
2023-03-07T11:02:51.513Z,60.54873
2023-03-07T11:07:53.387Z,59.37991
2023-03-07T11:12:55.238Z,59.46681
2023-03-07T11:17:56.977Z,62.08014
2023-03-07T11:22:58.894Z,61.3068
2023-03-07T11:28:00.551Z,61.47089
2023-03-07T11:33:02.242Z,65.05478
2023-03-07T11:38:03.930Z,66.99866
2023-03-07T11:43:05.528Z,67.55253
2023-03-07T11:48:07.280Z,68.3052
2023-03-07T11:53:08.901Z,68.07774
2023-03-07T11:58:10.555Z,67.8773
2023-03-07T12:03:12.161Z,64.8185
2023-03-07T12:08:13.800Z,65.71489
2023-03-07T12:13:15.386Z,67.5208
2023-03-07T12:18:16.994Z,66.67433
2023-03-07T12:23:18.665Z,65.02671
2023-03-07T12:28:20.997Z,62.03206
2023-03-07T12:33:23.185Z,61.14177
2023-03-07T12:38:25.880Z,61.49818
2023-03-07T12:43:27.592Z,63.06455
2023-03-07T12:48:29.272Z,63.80102
2023-03-07T12:53:30.875Z,66.38113
2023-03-07T12:58:32.532Z,64.08141
2023-03-07T13:03:34.171Z,62.05617
2023-03-07T13:08:35.797Z,60.76474
2023-03-07T13:13:37.427Z,60.8851
2023-03-07T13:18:39.149Z,61.45527
2023-03-07T13:23:41.028Z,59.71091
2023-03-07T13:28:42.777Z,61.18021
2023-03-07T13:33:44.390Z,60.16878
2023-03-07T13:38:46.053Z,61.12594
2023-03-07T13:43:48.057Z,62.27345
2023-03-07T13:48:49.698Z,60.99725
2023-03-07T13:53:51.315Z,61.86041
2023-03-07T13:58:53.109Z,61.40771
2023-03-07T14:03:54.764Z,62.50854
2023-03-07T14:08:56.463Z,61.65063
2023-03-07T14:13:58.212Z,61.38274
2023-03-07T14:18:59.805Z,61.65097
2023-03-07T14:24:01.456Z,61.27217
2023-03-07T14:29:03.135Z,60.66176
2023-03-07T14:34:04.795Z,64.38584
2023-03-07T14:39:06.396Z,62.29551
2023-03-07T14:44:08.031Z,62.01416
2023-03-07T14:49:09.790Z,61.08779
2023-03-07T14:54:11.453Z,61.52517
2023-03-07T14:59:26.113Z,62.62184
2023-03-07T15:04:29.638Z,62.37334
2023-03-07T15:09:31.322Z,61.08996
2023-03-07T15:14:33.042Z,61.29193
2023-03-07T15:19:34.647Z,61.22758
2023-03-07T15:24:36.249Z,60.75729
2023-03-07T15:29:37.895Z,59.838
2023-03-07T15:34:39.514Z,59.66496
2023-03-07T15:39:41.211Z,60.72033
2023-03-07T15:44:42.849Z,61.14324
2023-03-07T15:49:44.620Z,61.41581
2023-03-07T15:54:46.332Z,60.75269
2023-03-07T15:59:47.982Z,61.3144
2023-03-07T16:04:49.626Z,61.35843
2023-03-07T16:09:51.272Z,58.08285
2023-03-07T16:14:52.968Z,57.05853
2023-03-07T16:19:54.619Z,58.87384
2023-03-07T16:24:56.242Z,58.63413
2023-03-07T16:29:57.889Z,57.84189
2023-03-07T16:34:59.495Z,54.62737
2023-03-07T16:40:01.404Z,54.15281
2023-03-07T16:45:03.113Z,53.99898
2023-03-07T16:50:04.724Z,53.58704
2023-03-07T16:55:06.330Z,54.40931
2023-03-07T17:00:08.015Z,55.02026
2023-03-07T17:05:09.641Z,58.61763
2023-03-07T17:10:11.233Z,56.4067
2023-03-07T17:15:12.893Z,54.64762
2023-03-07T17:20:14.546Z,54.8103
2023-03-07T17:25:16.162Z,56.78818
2023-03-07T17:30:17.804Z,56.07274
2023-03-07T17:35:19.513Z,53.92656
2023-03-07T17:40:21.420Z,53.0691
2023-03-07T17:45:23.128Z,51.07621
2023-03-07T17:50:24.763Z,53.17373
2023-03-07T17:55:26.401Z,50.8478
2023-03-07T18:00:28.132Z,49.55744
2023-03-07T18:05:29.824Z,49.3921
2023-03-07T18:10:31.489Z,48.45674
2023-03-07T18:15:33.242Z,48.98924
2023-03-07T18:20:34.825Z,51.42526
2023-03-07T18:25:36.473Z,52.42636
2023-03-07T18:30:38.117Z,48.59706
2023-03-07T18:35:39.815Z,47.60218
2023-03-07T18:40:41.655Z,47.44058
2023-03-07T18:45:43.299Z,46.51153
2023-03-07T18:50:44.917Z,46.67209
2023-03-07T18:55:46.600Z,49.25681
2023-03-07T19:00:48.312Z,48.95297
2023-03-07T19:05:49.912Z,47.15531
2023-03-07T19:10:51.527Z,47.90497
2023-03-07T19:15:53.198Z,46.72342
2023-03-07T19:20:54.830Z,46.3993
2023-03-07T19:25:56.448Z,45.39747
2023-03-07T19:30:58.102Z,42.31381
2023-03-07T19:35:59.799Z,42.66641
2023-03-07T19:41:01.495Z,41.90862
2023-03-07T19:46:03.351Z,42.06026
2023-03-07T19:51:05.082Z,42.07916
2023-03-07T19:56:06.771Z,41.14312
2023-03-07T20:01:08.607Z,43.65459
2023-03-07T20:06:10.373Z,39.15019
2023-03-07T20:11:12.038Z,39.9613
2023-03-07T20:16:13.981Z,42.84796
2023-03-07T20:21:15.662Z,40.83875
2023-03-07T20:26:17.325Z,40.70199
2023-03-07T20:31:19.063Z,40.51469
2023-03-07T20:36:20.734Z,40.73488
2023-03-07T20:41:22.402Z,40.55393
2023-03-07T20:46:24.043Z,37.83364
2023-03-07T20:51:25.789Z,38.10152
2023-03-07T20:56:27.520Z,38.76683
2023-03-07T21:01:29.194Z,37.61041
2023-03-07T21:06:30.901Z,41.46765
2023-03-07T21:11:32.657Z,39.51458
2023-03-07T21:16:34.356Z,39.79431
2023-03-07T21:21:35.994Z,41.83631
2023-03-07T21:26:37.597Z,39.24433
2023-03-07T21:31:39.343Z,40.76536
2023-03-07T21:36:41.032Z,36.73068
2023-03-07T21:41:42.710Z,38.53408
2023-03-07T21:46:44.367Z,38.64487
2023-03-07T21:51:46.199Z,39.24983
2023-03-07T21:56:47.863Z,39.07246
2023-03-07T22:01:49.795Z,40.41089
2023-03-07T22:06:51.430Z,37.3865
2023-03-07T22:11:53.144Z,41.66608
2023-03-07T22:16:54.863Z,35.6217
2023-03-07T22:21:56.537Z,35.5241
2023-03-07T22:26:58.385Z,38.60043
2023-03-07T22:32:00.424Z,38.74605
2023-03-07T22:37:02.278Z,38.05762
2023-03-07T22:42:04.809Z,40.38277
2023-03-07T22:47:06.641Z,40.73541
2023-03-07T22:52:08.318Z,40.45393
2023-03-07T22:57:09.932Z,41.64807
2023-03-07T23:02:11.537Z,41.48454
2023-03-07T23:07:13.156Z,39.01958
2023-03-07T23:12:14.800Z,41.69151
2023-03-07T23:17:16.484Z,40.04781
2023-03-07T23:22:18.112Z,38.89588
2023-03-07T23:27:19.742Z,40.05203
2023-03-07T23:32:21.494Z,41.09145
2023-03-07T23:37:23.182Z,40.80599
2023-03-07T23:42:25.016Z,42.03741
2023-03-07T23:47:26.655Z,42.65919
2023-03-07T23:52:28.311Z,42.73296
2023-03-07T23:57:29.848Z,42.66513
